Time;durP1;ratioP1;P1;durP2;ratioP2;P2;SDS_P1;SDS_P2;PMS_P1;PMS_P2;Temp;Humidity;BMP_temperature;BMP_pressure;BME280_temperature;BME280_humidity;BME280_pressure;Samples;Min_cycle;Max_cycle;Signal;HPM_P1;HPM_P2
2022/02/09 00:02:01;;;;;;;16.63;12.60;;;9.10;99.90;;;;;;5028187;28;20196;-47
2022/02/09 00:04:34;;;;;;;17.43;12.53;;;9.10;99.90;;;;;;5037740;28;20274;-50
2022/02/09 00:07:07;;;;;;;15.17;11.73;;;9.10;99.90;;;;;;5029849;28;20207;-50
2022/02/09 00:09:34;;;;;;;19.73;13.70;;;9.10;99.90;;;;;;5014262;28;20892;-53
2022/02/09 00:12:06;;;;;;;20.67;14.20;;;9.10;99.90;;;;;;5035892;28;20672;-53
2022/02/09 00:14:43;;;;;;;19.73;12.80;;;9.10;99.90;;;;;;5030966;28;20196;-51
2022/02/09 00:17:30;;;;;;;18.87;13.73;;;9.10;99.90;;;;;;5031671;28;20306;-56
2022/02/09 00:20:28;;;;;;;16.70;13.57;;;9.10;99.90;;;;;;5030764;28;20202;-50
2022/02/09 00:28:51;;;;;;;20.10;14.00;;;9.10;99.90;;;;;;5015768;28;20228;-47
2022/02/09 00:34:19;;;;;;;18.53;13.80;;;9.10;99.90;;;;;;5011209;28;20218;-47
2022/02/09 00:37:17;;;;;;;19.17;13.53;;;9.10;99.90;;;;;;5038214;28;20254;-55
2022/02/09 00:40:08;;;;;;;16.73;13.70;;;9.10;99.90;;;;;;5015088;28;20270;-49
2022/02/09 00:42:50;;;;;;;15.50;13.00;;;9.10;99.90;;;;;;5027665;28;20195;-47
2022/02/09 01:38:05;;;;;;;16.80;13.97;;;9.10;99.90;;;;;;5036382;28;20222;-47
2022/02/09 01:41:14;;;;;;;14.73;12.57;;;9.10;99.90;;;;;;5039597;28;20187;-49
2022/02/09 01:44:22;;;;;;;17.03;13.73;;;9.10;99.90;;;;;;5028094;28;20826;-51
2022/02/09 01:57:26;;;;;;;14.53;11.47;;;9.10;99.90;;;;;;5026183;28;20207;-50
2022/02/09 01:59:52;;;;;;;13.77;12.43;;;9.10;99.90;;;;;;5020812;28;20204;-55
2022/02/09 02:02:21;;;;;;;14.37;12.27;;;9.10;99.90;;;;;;5033386;28;20208;-49
2022/02/09 02:04:48;;;;;;;14.97;12.60;;;9.10;99.90;;;;;;5034129;28;20199;-51
2022/02/09 02:07:25;;;;;;;14.43;11.97;;;9.10;99.90;;;;;;5028059;28;20227;-53
2022/02/09 02:09:59;;;;;;;14.50;11.83;;;9.10;99.90;;;;;;5037911;28;20195;-47
2022/02/09 02:12:26;;;;;;;15.10;12.43;;;9.10;99.90;;;;;;5030853;28;20200;-48
2022/02/09 02:14:59;;;;;;;13.37;11.70;;;9.10;99.90;;;;;;5017184;28;20207;-51
2022/02/09 02:17:34;;;;;;;11.37;9.70;;;9.10;99.90;;;;;;5023923;28;20299;-47
2022/02/09 02:20:12;;;;;;;14.40;11.53;;;9.10;99.90;;;;;;5028385;28;20204;-50
2022/02/09 02:22:50;;;;;;;15.03;11.33;;;9.10;99.90;;;;;;5029020;28;20191;-45
2022/02/09 02:25:45;;;;;;;13.90;11.43;;;9.00;99.90;;;;;;5028778;28;20199;-46
2022/02/09 02:28:32;;;;;;;12.03;10.73;;;9.00;99.90;;;;;;5022094;28;20230;-47
2022/02/09 02:31:36;;;;;;;11.97;10.73;;;9.00;99.90;;;;;;5027611;28;20230;-46
2022/02/09 02:34:30;;;;;;;13.67;12.17;;;9.00;99.90;;;;;;5030836;28;20218;-47
2022/02/09 02:37:12;;;;;;;12.63;11.23;;;9.00;99.90;;;;;;5034272;28;20203;-45
2022/02/09 02:40:01;;;;;;;11.50;10.30;;;9.00;99.90;;;;;;5042858;28;20252;-45
2022/02/09 02:57:07;;;;;;;13.03;8.47;;;8.90;99.90;;;;;;5050853;28;20197;-48
2022/02/09 02:59:43;;;;;;;11.10;10.00;;;8.90;99.90;;;;;;5052247;28;20190;-45
2022/02/09 03:13:13;;;;;;;10.37;7.97;;;8.90;99.90;;;;;;5049270;28;20198;-50
2022/02/09 03:15:47;;;;;;;13.10;9.90;;;8.90;99.90;;;;;;5044161;28;20206;-49
2022/02/09 03:18:36;;;;;;;11.80;10.07;;;8.90;99.90;;;;;;5054587;28;20342;-51
2022/02/09 03:21:15;;;;;;;13.03;10.20;;;8.90;99.90;;;;;;5051684;28;20207;-52
2022/02/09 03:23:47;;;;;;;11.03;9.60;;;8.80;99.90;;;;;;5053690;28;20277;-46
2022/02/09 03:26:42;;;;;;;12.40;10.30;;;8.80;99.90;;;;;;5039425;28;20230;-55
2022/02/09 03:43:04;;;;;;;13.27;10.53;;;8.70;99.90;;;;;;5049591;28;20228;-56
2022/02/09 03:48:33;;;;;;;12.53;11.20;;;8.70;99.90;;;;;;5043505;28;20332;-51
2022/02/09 03:53:54;;;;;;;11.73;10.10;;;8.70;99.90;;;;;;5023745;28;20198;-46
2022/02/09 03:56:28;;;;;;;12.33;10.83;;;8.70;99.90;;;;;;5054652;28;20206;-51
2022/02/09 03:58:56;;;;;;;16.03;11.60;;;8.70;99.90;;;;;;5045830;28;20222;-46
2022/02/09 04:01:26;;;;;;;13.93;11.07;;;8.70;99.90;;;;;;5034859;28;20198;-49
2022/02/09 04:03:53;;;;;;;14.77;11.37;;;8.70;99.90;;;;;;5024460;28;20207;-45
2022/02/09 04:06:20;;;;;;;14.53;11.60;;;8.70;99.90;;;;;;5036823;28;20211;-48
2022/02/09 04:08:53;;;;;;;12.83;9.83;;;8.60;99.90;;;;;;5043636;28;20230;-47
2022/02/09 04:11:26;;;;;;;15.67;10.93;;;8.60;99.90;;;;;;5030971;28;20568;-50
2022/02/09 04:14:02;;;;;;;18.30;12.80;;;8.60;99.90;;;;;;5044995;28;20307;-45
2022/02/09 04:16:42;;;;;;;15.13;11.70;;;8.60;99.90;;;;;;5034178;28;20835;-44
2022/02/09 04:19:19;;;;;;;17.90;12.57;;;8.60;99.90;;;;;;5030353;28;20227;-45
2022/02/09 04:38:37;;;;;;;17.83;12.10;;;8.60;99.90;;;;;;5033158;28;20211;-47
2022/02/09 04:41:30;;;;;;;16.13;12.57;;;8.60;99.90;;;;;;5032923;28;20564;-45
2022/02/09 04:44:15;;;;;;;14.70;11.93;;;8.60;99.90;;;;;;5043745;28;20207;-45
2022/02/09 04:55:05;;;;;;;22.27;14.53;;;8.60;99.90;;;;;;5036365;28;20740;-47
2022/02/09 04:57:39;;;;;;;18.20;12.97;;;8.60;99.90;;;;;;5041140;28;20214;-45
2022/02/09 05:00:24;;;;;;;24.03;16.17;;;8.60;99.90;;;;;;5042108;28;20202;-47
2022/02/09 05:22:34;;;;;;;30.97;18.03;;;8.50;99.90;;;;;;5026443;28;20320;-51
2022/02/09 05:25:15;;;;;;;19.77;13.40;;;8.50;99.90;;;;;;5035728;28;20665;-47
2022/02/09 05:27:52;;;;;;;22.40;14.67;;;8.50;99.90;;;;;;5034877;28;20227;-47
2022/02/09 05:30:21;;;;;;;23.47;14.63;;;8.50;99.90;;;;;;5032594;28;20206;-49
2022/02/09 05:32:48;;;;;;;21.37;12.60;;;8.50;99.90;;;;;;5033503;28;20208;-45
2022/02/09 05:35:18;;;;;;;18.30;14.03;;;8.50;99.90;;;;;;5026102;28;20294;-44
2022/02/09 05:37:45;;;;;;;27.20;15.70;;;8.50;99.90;;;;;;5042944;28;20264;-48
2022/02/09 05:40:13;;;;;;;22.63;15.43;;;8.50;99.90;;;;;;5038811;28;20564;-45
2022/02/09 05:42:39;;;;;;;21.37;14.57;;;8.50;99.90;;;;;;5033179;28;20203;-47
2022/02/09 05:45:09;;;;;;;25.17;16.47;;;8.50;99.90;;;;;;5038307;28;20198;-46
2022/02/09 05:48:29;;;;;;;28.00;16.20;;;8.50;99.90;;;;;;5032091;28;20240;-47
2022/02/09 05:50:55;;;;;;;29.13;17.17;;;8.50;99.90;;;;;;5027541;28;20318;-46
2022/02/09 05:53:24;;;;;;;25.30;16.13;;;8.50;99.90;;;;;;5034080;28;20270;-45
2022/02/09 05:56:04;;;;;;;26.37;15.77;;;8.50;99.90;;;;;;5039903;28;20199;-47
2022/02/09 05:58:37;;;;;;;24.53;15.57;;;8.50;99.90;;;;;;5032491;28;20238;-44
2022/02/09 06:01:06;;;;;;;26.17;16.67;;;8.50;99.90;;;;;;5023579;28;20222;-43
2022/02/09 06:03:34;;;;;;;25.97;16.87;;;8.50;99.90;;;;;;5028258;28;20584;-46
2022/02/09 06:06:00;;;;;;;33.63;17.97;;;8.50;99.90;;;;;;5021002;28;20203;-44
2022/02/09 06:08:27;;;;;;;30.37;17.80;;;8.50;99.90;;;;;;5033546;28;20222;-43
2022/02/09 06:11:10;;;;;;;22.53;16.57;;;8.50;99.90;;;;;;5039717;28;20969;-44
2022/02/09 06:14:14;;;;;;;27.80;17.30;;;8.50;99.90;;;;;;5026749;28;20210;-46
2022/02/09 06:19:49;;;;;;;24.53;15.63;;;8.50;99.90;;;;;;5024065;28;20196;-44
2022/02/09 06:22:15;;;;;;;22.77;16.60;;;8.50;99.90;;;;;;5026606;28;20607;-43
2022/02/09 06:24:43;;;;;;;27.87;16.47;;;8.50;99.90;;;;;;5038380;28;20883;-45
2022/02/09 06:27:10;;;;;;;30.43;16.97;;;8.50;99.90;;;;;;5033609;28;20293;-44
2022/02/09 06:29:40;;;;;;;18.77;13.60;;;8.50;99.90;;;;;;5030467;28;20268;-44
2022/02/09 06:32:09;;;;;;;25.17;16.03;;;8.50;99.90;;;;;;5029652;28;20562;-45
2022/02/09 06:34:39;;;;;;;28.97;16.87;;;8.50;99.90;;;;;;5029177;28;21027;-45
2022/02/09 06:37:14;;;;;;;22.40;15.77;;;8.50;99.90;;;;;;5036361;28;20981;-47
2022/02/09 06:39:44;;;;;;;31.60;16.33;;;8.50;99.90;;;;;;5019747;28;20195;-43
2022/02/09 06:42:12;;;;;;;25.50;15.47;;;8.50;99.90;;;;;;5038229;28;20261;-45
2022/02/09 06:44:38;;;;;;;28.70;16.67;;;8.50;99.90;;;;;;5029686;28;22128;-47
2022/02/09 06:47:06;;;;;;;25.07;15.97;;;8.50;99.90;;;;;;5036698;28;20290;-46
2022/02/09 06:49:33;;;;;;;29.90;16.60;;;8.50;99.90;;;;;;5031465;28;20586;-46
2022/02/09 06:52:02;;;;;;;24.10;15.87;;;8.50;99.90;;;;;;5036948;28;20207;-44
2022/02/09 06:54:31;;;;;;;16.00;11.03;;;8.50;99.90;;;;;;5023941;28;20585;-44
2022/02/09 06:57:05;;;;;;;31.63;16.17;;;8.50;99.90;;;;;;5035501;28;20651;-46
2022/02/09 06:59:34;;;;;;;22.50;14.20;;;8.50;99.90;;;;;;5030651;28;20235;-45
2022/02/09 07:02:05;;;;;;;27.73;16.53;;;8.40;99.90;;;;;;5038884;28;22081;-46
2022/02/09 07:04:33;;;;;;;26.90;17.03;;;8.40;99.90;;;;;;5033204;28;20675;-46
2022/02/09 07:07:01;;;;;;;25.23;14.97;;;8.40;99.90;;;;;;5041688;28;20219;-44
2022/02/09 07:09:29;;;;;;;23.20;12.87;;;8.40;99.90;;;;;;5024986;28;20245;-47
2022/02/09 07:11:56;;;;;;;24.10;15.00;;;8.40;99.90;;;;;;5034103;28;20206;-45
2022/02/09 07:14:25;;;;;;;27.67;15.57;;;8.40;99.90;;;;;;5029240;28;20564;-46
2022/02/09 07:16:53;;;;;;;31.07;17.67;;;8.40;99.90;;;;;;5031865;28;20268;-45
2022/02/09 07:19:20;;;;;;;24.17;14.73;;;8.40;99.90;;;;;;5035229;28;20608;-46
2022/02/09 07:21:49;;;;;;;22.83;15.93;;;8.40;99.90;;;;;;5036144;28;20207;-47
2022/02/09 07:24:19;;;;;;;25.63;16.03;;;8.40;99.90;;;;;;5023569;28;20679;-49
2022/02/09 07:27:02;;;;;;;23.80;16.17;;;8.40;99.90;;;;;;5033964;28;20250;-45
2022/02/09 07:29:30;;;;;;;21.33;14.93;;;8.40;99.90;;;;;;5012633;28;20695;-44
2022/02/09 07:31:57;;;;;;;25.47;16.00;;;8.40;99.90;;;;;;5030342;28;20192;-44
2022/02/09 07:34:24;;;;;;;26.53;16.93;;;8.40;99.90;;;;;;5033379;28;20210;-44
2022/02/09 07:36:50;;;;;;;21.77;14.27;;;8.40;99.90;;;;;;5033255;28;20199;-45
2022/02/09 07:39:21;;;;;;;21.83;15.90;;;8.40;99.90;;;;;;5026760;28;20216;-46
2022/02/09 07:41:50;;;;;;;23.10;14.70;;;8.40;99.90;;;;;;5038775;28;20672;-45
2022/02/09 07:44:31;;;;;;;24.77;16.33;;;8.50;99.90;;;;;;5031486;28;20204;-45
2022/02/09 07:47:21;;;;;;;19.97;14.80;;;8.50;99.90;;;;;;5036574;28;20291;-45
2022/02/09 07:50:03;;;;;;;22.07;14.87;;;8.50;99.90;;;;;;5024707;28;20203;-45
2022/02/09 07:52:38;;;;;;;24.43;16.03;;;8.50;99.90;;;;;;5044016;28;20199;-44
2022/02/09 07:55:07;;;;;;;27.90;16.27;;;8.50;99.90;;;;;;5022789;28;20297;-44
2022/02/09 07:57:34;;;;;;;23.07;13.90;;;8.50;99.90;;;;;;5041823;28;20219;-44
2022/02/09 08:00:00;;;;;;;24.80;16.63;;;8.50;99.90;;;;;;5024729;28;20204;-46
2022/02/09 08:02:29;;;;;;;25.53;18.30;;;8.50;99.90;;;;;;5032078;28;20199;-44
2022/02/09 08:04:56;;;;;;;24.37;15.50;;;8.50;99.90;;;;;;5026695;28;20207;-44
2022/02/09 08:07:23;;;;;;;24.83;15.53;;;8.50;99.90;;;;;;5035016;28;20219;-45
2022/02/09 08:09:50;;;;;;;19.87;14.57;;;8.60;99.90;;;;;;5037832;28;20876;-44
2022/02/09 08:12:48;;;;;;;25.93;15.97;;;8.60;99.90;;;;;;5019161;28;20203;-44
2022/02/09 08:24:03;;;;;;;18.63;12.37;;;8.60;99.90;;;;;;5031800;28;20208;-44
2022/02/09 08:29:41;;;;;;;22.47;13.17;;;8.60;99.90;;;;;;4977062;28;20217;-44
2022/02/09 08:34:55;;;;;;;24.30;14.20;;;8.70;99.90;;;;;;5012462;28;20208;-46
2022/02/09 08:37:21;;;;;;;15.80;12.27;;;8.70;99.90;;;;;;5033618;28;20610;-45
2022/02/09 08:39:50;;;;;;;18.10;11.97;;;8.70;99.90;;;;;;5038247;28;20199;-44
2022/02/09 08:42:17;;;;;;;22.23;13.10;;;8.70;99.90;;;;;;5026338;28;20203;-44
2022/02/09 08:44:45;;;;;;;15.50;11.77;;;8.70;99.90;;;;;;5027468;28;20195;-43
2022/02/09 08:47:12;;;;;;;15.47;11.70;;;8.80;99.90;;;;;;5035578;28;20223;-45
2022/02/09 08:49:39;;;;;;;14.30;10.97;;;8.80;99.90;;;;;;5036461;28;20223;-44
2022/02/09 08:52:07;;;;;;;14.60;9.70;;;8.80;99.90;;;;;;5035170;28;20211;-43
2022/02/09 08:54:34;;;;;;;18.27;11.57;;;8.80;99.90;;;;;;5038014;28;20261;-44
2022/02/09 08:57:08;;;;;;;16.70;11.70;;;8.90;99.90;;;;;;5023689;28;20219;-44
2022/02/09 08:59:36;;;;;;;15.67;10.57;;;8.90;99.90;;;;;;5032583;28;20215;-46
2022/02/09 09:02:07;;;;;;;15.67;10.10;;;8.90;99.90;;;;;;5041166;28;20206;-43
2022/02/09 09:04:37;;;;;;;11.43;8.73;;;8.90;99.90;;;;;;5030918;28;20265;-42
2022/02/09 09:07:09;;;;;;;11.43;8.80;;;8.90;99.90;;;;;;5040682;28;20203;-42
2022/02/09 09:09:47;;;;;;;12.30;9.23;;;8.90;99.90;;;;;;5030741;28;20219;-46
2022/02/09 09:15:57;;;;;;;11.20;8.77;;;9.00;99.90;;;;;;5027793;28;20360;-44
2022/02/09 09:41:46;;;;;;;10.77;8.40;;;9.10;99.90;;;;;;5021689;28;20812;-45
2022/02/09 10:00:37;;;;;;;11.90;8.20;;;9.20;99.90;;;;;;5025036;28;20619;-44
2022/02/09 10:02:56;;;;;;;8.97;6.83;;;9.20;99.90;;;;;;5031852;28;20218;-44
2022/02/09 10:14:06;;;;;;;9.67;7.03;;;9.30;99.90;;;;;;5031498;28;20330;-44
2022/02/09 10:30:56;;;;;;;11.43;6.93;;;9.30;99.90;;;;;;5031994;28;20241;-45
2022/02/09 10:33:52;;;;;;;8.73;7.60;;;9.30;99.90;;;;;;4984410;28;20281;-45
2022/02/09 10:36:20;;;;;;;11.50;7.57;;;9.30;99.90;;;;;;5027541;28;20206;-46
2022/02/09 10:38:49;;;;;;;8.20;7.30;;;9.40;99.90;;;;;;5030718;28;20223;-47
2022/02/09 10:41:20;;;;;;;8.27;7.00;;;9.40;99.90;;;;;;5031184;28;20247;-45
2022/02/09 10:43:47;;;;;;;7.63;6.93;;;9.40;99.90;;;;;;5025988;28;20192;-45
2022/02/09 10:46:16;;;;;;;10.43;6.77;;;9.40;99.90;;;;;;5019624;28;20285;-47
2022/02/09 10:48:50;;;;;;;9.07;6.17;;;9.40;99.90;;;;;;5028277;28;20825;-47
2022/02/09 10:51:29;;;;;;;7.70;6.87;;;9.40;99.90;;;;;;5034534;28;20748;-44
2022/02/09 10:54:11;;;;;;;8.40;6.87;;;9.40;99.90;;;;;;5024722;28;20557;-44
2022/02/09 10:56:41;;;;;;;9.43;6.77;;;9.40;99.90;;;;;;5024644;28;20204;-44
2022/02/09 10:59:09;;;;;;;6.67;6.00;;;9.30;99.90;;;;;;5036976;28;20332;-46
2022/02/09 11:01:36;;;;;;;9.47;6.07;;;9.30;99.90;;;;;;5025224;28;20257;-44
2022/02/09 11:04:04;;;;;;;15.23;9.77;;;9.30;99.90;;;;;;5030035;28;20218;-46
2022/02/09 11:06:32;;;;;;;7.43;6.27;;;9.30;99.90;;;;;;5035010;28;20187;-46
2022/02/09 11:09:00;;;;;;;7.67;6.10;;;9.30;99.90;;;;;;5032890;28;20219;-43
2022/02/09 11:11:29;;;;;;;8.53;5.67;;;9.20;99.90;;;;;;5030188;28;20194;-44
2022/02/09 11:13:57;;;;;;;6.07;4.97;;;9.20;99.90;;;;;;5030886;28;20210;-42
2022/02/09 11:16:26;;;;;;;9.27;6.70;;;9.20;99.90;;;;;;5030679;28;20202;-44
2022/02/09 11:18:56;;;;;;;9.00;6.33;;;9.20;99.90;;;;;;5025451;28;20238;-44
2022/02/09 11:21:28;;;;;;;6.13;5.53;;;9.20;99.90;;;;;;5030473;28;20239;-43
2022/02/09 11:23:57;;;;;;;6.93;5.97;;;9.20;99.90;;;;;;5029864;28;20204;-43
2022/02/09 11:26:38;;;;;;;9.17;5.50;;;9.20;99.90;;;;;;5033978;28;20970;-44
2022/02/09 11:29:27;;;;;;;8.57;5.50;;;9.20;99.90;;;;;;5029706;28;20226;-44
2022/02/09 11:32:24;;;;;;;7.37;5.60;;;9.20;99.90;;;;;;5040578;28;20203;-47
2022/02/09 11:35:20;;;;;;;5.90;5.30;;;9.20;99.90;;;;;;5033230;28;20824;-45
2022/02/09 11:37:56;;;;;;;9.00;5.17;;;9.20;99.90;;;;;;5032429;28;20222;-47
2022/02/09 11:40:31;;;;;;;6.63;4.67;;;9.20;99.90;;;;;;5031655;28;20287;-44
2022/02/09 11:43:30;;;;;;;4.80;3.63;;;9.20;99.90;;;;;;5045329;28;20203;-47
2022/02/09 11:46:18;;;;;;;6.30;4.30;;;9.20;99.90;;;;;;5034072;28;20238;-46
2022/02/09 11:49:39;;;;;;;8.63;4.73;;;9.20;99.90;;;;;;5022942;28;20215;-48
2022/02/09 11:52:25;;;;;;;5.87;4.47;;;9.20;99.90;;;;;;5034982;28;20218;-46
2022/02/09 11:55:21;;;;;;;4.80;4.40;;;9.30;99.90;;;;;;5039471;28;20290;-47
2022/02/09 12:00:59;;;;;;;4.70;3.97;;;9.30;99.90;;;;;;5030284;28;20245;-69
2022/02/09 12:10:22;;;;;;;5.87;4.40;;;9.30;99.90;;;;;;5033452;28;20243;-67
2022/02/09 12:12:57;;;;;;;7.17;4.43;;;9.30;99.90;;;;;;5037288;28;20233;-65
2022/02/09 12:15:53;;;;;;;7.73;5.20;;;9.30;99.90;;;;;;5029457;28;20198;-58
2022/02/09 12:18:28;;;;;;;4.73;4.30;;;9.20;99.90;;;;;;5038879;28;20864;-48
2022/02/09 12:20:59;;;;;;;5.17;4.67;;;9.20;99.90;;;;;;5026271;28;20217;-53
2022/02/09 12:23:35;;;;;;;4.00;3.70;;;9.20;99.90;;;;;;5041716;28;20184;-51
2022/02/09 12:26:08;;;;;;;7.83;4.37;;;9.20;99.90;;;;;;5031486;28;20673;-51
2022/02/09 12:28:38;;;;;;;3.90;2.87;;;9.20;99.90;;;;;;5039630;28;20295;-49
2022/02/09 12:31:06;;;;;;;6.87;3.70;;;9.10;99.90;;;;;;5025973;28;20199;-47
2022/02/09 12:33:34;;;;;;;4.57;3.90;;;9.10;99.90;;;;;;5035566;28;20209;-45
2022/02/09 12:36:17;;;;;;;7.57;4.30;;;9.20;99.90;;;;;;5022125;28;20227;-46
2022/02/09 12:38:47;;;;;;;5.13;4.00;;;9.20;99.90;;;;;;5040840;28;20211;-48
2022/02/09 12:41:16;;;;;;;4.33;3.57;;;9.20;99.90;;;;;;5024767;28;20227;-49
2022/02/09 12:43:56;;;;;;;5.87;3.93;;;9.20;99.90;;;;;;5034650;28;20204;-49
2022/02/09 12:46:25;;;;;;;6.00;5.20;;;9.20;99.90;;;;;;5031608;28;20318;-47
2022/02/09 12:48:53;;;;;;;6.50;5.00;;;9.20;99.90;;;;;;5039909;28;20960;-46
2022/02/09 12:51:29;;;;;;;6.77;4.23;;;9.10;99.90;;;;;;5022493;28;20192;-49
2022/02/09 12:53:56;;;;;;;4.80;4.40;;;9.10;99.90;;;;;;5036711;28;20207;-45
2022/02/09 12:56:25;;;;;;;4.23;3.57;;;9.10;99.90;;;;;;5036613;28;20218;-44
2022/02/09 12:59:00;;;;;;;6.33;4.43;;;9.10;99.90;;;;;;5040440;28;20218;-47
2022/02/09 13:01:28;;;;;;;7.93;4.60;;;9.10;99.90;;;;;;5031176;28;20296;-45
2022/02/09 13:03:55;;;;;;;5.40;3.43;;;9.10;99.90;;;;;;5036185;28;20599;-46
2022/02/09 13:06:22;;;;;;;4.67;3.70;;;9.10;99.90;;;;;;5004007;28;20203;-48
2022/02/09 13:08:54;;;;;;;4.03;3.73;;;9.10;99.90;;;;;;5033846;28;20303;-44
2022/02/09 13:11:27;;;;;;;3.93;3.63;;;9.00;99.90;;;;;;5033265;28;20196;-44
2022/02/09 13:14:00;;;;;;;3.57;3.27;;;9.00;99.90;;;;;;5033489;28;20241;-45
2022/02/09 13:16:47;;;;;;;5.90;3.67;;;9.00;99.90;;;;;;5027800;28;20211;-45
2022/02/09 13:19:39;;;;;;;4.10;3.70;;;9.00;99.90;;;;;;5030406;28;20203;-44
2022/02/09 13:22:34;;;;;;;3.60;3.30;;;9.00;99.90;;;;;;5020359;28;20278;-44
2022/02/09 14:10:56;;;;;;;2.30;2.20;;;9.10;99.90;;;;;;5010097;28;21687;-48
2022/02/09 14:13:28;;;;;;;2.70;2.50;;;9.10;99.90;;;;;;5032664;28;20277;-45
2022/02/09 14:16:31;;;;;;;3.50;2.40;;;9.10;99.90;;;;;;5024208;28;20290;-48
2022/02/09 14:19:12;;;;;;;2.60;2.40;;;9.10;99.90;;;;;;5025704;28;20894;-47
2022/02/09 14:47:30;;;;;;;2.60;2.40;;;9.00;99.90;;;;;;5029038;28;20203;-43
2022/02/09 14:52:48;;;;;;;5.07;2.30;;;9.00;99.90;;;;;;5035103;28;20200;-44
2022/02/09 14:55:29;;;;;;;2.43;2.30;;;9.00;99.90;;;;;;5019147;28;20211;-45
2022/02/09 14:58:05;;;;;;;2.20;2.10;;;9.00;99.90;;;;;;5031829;28;20215;-47
2022/02/09 15:00:35;;;;;;;2.37;2.00;;;8.90;99.90;;;;;;5028733;28;20233;-44
2022/02/09 15:03:15;;;;;;;2.60;2.37;;;8.90;99.90;;;;;;5029379;28;20282;-44
2022/02/09 15:06:21;;;;;;;2.37;2.10;;;8.90;99.90;;;;;;5026271;28;20206;-45
2022/02/09 15:08:51;;;;;;;2.80;2.47;;;8.90;99.90;;;;;;5032738;28;20285;-45
2022/02/09 15:11:27;;;;;;;4.60;2.73;;;8.90;99.90;;;;;;5023534;28;20241;-46
2022/02/09 15:14:07;;;;;;;2.43;2.23;;;8.90;99.90;;;;;;5022007;28;20211;-44
2022/02/09 15:16:39;;;;;;;1.90;1.80;;;9.00;99.90;;;;;;5025102;28;20907;-46
2022/02/09 15:19:23;;;;;;;2.37;1.90;;;8.90;99.90;;;;;;5022304;28;20319;-46
2022/02/09 15:24:40;;;;;;;1.90;1.70;;;8.90;99.90;;;;;;5028312;28;20199;-44
2022/02/09 15:27:11;;;;;;;1.73;1.63;;;8.90;99.90;;;;;;5015186;28;20229;-44
2022/02/09 15:29:38;;;;;;;1.90;1.80;;;8.90;99.90;;;;;;5040194;28;20226;-49
2022/02/09 15:32:16;;;;;;;1.57;1.50;;;8.90;99.90;;;;;;5021300;28;20215;-45
2022/02/09 15:34:47;;;;;;;1.40;1.30;;;8.90;99.90;;;;;;5032849;28;20264;-44
2022/02/09 15:37:21;;;;;;;1.93;1.40;;;8.90;99.90;;;;;;5034196;28;20250;-43
2022/02/09 15:39:52;;;;;;;1.70;1.60;;;8.90;99.90;;;;;;5040812;28;20248;-45
2022/02/09 15:42:49;;;;;;;2.37;1.60;;;8.90;99.90;;;;;;5019726;28;20211;-44
2022/02/09 15:56:21;;;;;;;1.83;1.00;;;8.60;99.90;;;;;;5032447;28;20272;-45
2022/02/09 16:09:58;;;;;;;4.90;2.57;;;8.40;99.90;;;;;;5034144;28;20530;-45
2022/02/09 16:21:38;;;;;;;7.63;2.77;;;8.30;99.90;;;;;;5035309;28;20199;-43
2022/02/09 16:23:46;;;;;;;7.97;4.00;;;8.30;99.90;;;;;;5039867;28;20282;-44
2022/02/09 16:35:24;;;;;;;17.10;4.70;;;8.20;99.90;;;;;;5029486;28;20245;-46
2022/02/09 16:37:49;;;;;;;13.90;3.83;;;8.10;99.90;;;;;;5038077;28;20243;-45
2022/02/09 16:46:12;;;;;;;10.83;3.87;;;8.10;99.90;;;;;;5028045;28;20214;-46
2022/02/09 16:48:44;;;;;;;18.13;4.23;;;8.10;99.90;;;;;;5033634;28;20311;-46
2022/02/09 16:51:15;;;;;;;15.60;4.20;;;8.10;99.90;;;;;;5026126;28;20839;-44
2022/02/09 16:53:49;;;;;;;9.50;3.50;;;8.10;99.90;;;;;;5042858;28;20219;-50
2022/02/09 16:56:27;;;;;;;14.37;3.90;;;8.10;99.90;;;;;;5029815;28;20961;-45
2022/02/09 17:15:36;;;;;;;14.97;4.37;;;8.10;99.90;;;;;;5036199;28;20198;-44
2022/02/09 17:20:48;;;;;;;9.20;3.90;;;8.00;99.90;;;;;;5041730;28;20237;-44
2022/02/09 17:23:15;;;;;;;8.47;4.17;;;8.10;99.90;;;;;;5027129;28;20207;-46
2022/02/09 17:25:43;;;;;;;13.00;4.17;;;8.10;99.90;;;;;;5035486;28;20195;-45
2022/02/09 17:28:13;;;;;;;12.80;3.73;;;8.00;99.90;;;;;;5014006;28;20231;-45
2022/02/09 17:31:08;;;;;;;16.03;3.40;;;8.00;99.90;;;;;;5033670;28;21383;-45
2022/02/09 17:33:46;;;;;;;15.70;3.50;;;8.00;99.90;;;;;;5012042;28;20278;-44
2022/02/09 17:36:18;;;;;;;13.03;3.20;;;8.00;99.90;;;;;;5031783;28;20211;-44
2022/02/09 17:38:51;;;;;;;8.47;3.10;;;8.00;99.90;;;;;;5034084;28;20246;-48
2022/02/09 17:55:35;;;;;;;13.43;3.03;;;8.00;99.90;;;;;;5030604;28;20197;-43
2022/02/09 17:58:05;;;;;;;9.70;3.00;;;7.90;99.90;;;;;;5028906;28;20231;-45
2022/02/09 18:00:32;;;;;;;13.00;3.27;;;8.00;99.90;;;;;;5039211;28;20196;-45
2022/02/09 18:03:00;;;;;;;15.37;3.90;;;8.00;99.90;;;;;;5023755;28;20222;-46
2022/02/09 18:05:39;;;;;;;14.67;4.20;;;7.90;99.90;;;;;;5029892;28;20970;-49
2022/02/09 18:08:11;;;;;;;14.47;4.00;;;7.90;99.90;;;;;;5028304;28;20230;-47
2022/02/09 18:10:50;;;;;;;12.67;4.20;;;7.90;99.90;;;;;;5039300;28;20223;-47
2022/02/09 18:29:44;;;;;;;13.97;3.43;;;7.80;99.90;;;;;;5039214;28;20243;-46
2022/02/09 18:37:49;;;;;;;15.50;3.67;;;7.70;99.90;;;;;;5034192;28;20222;-50
2022/02/09 18:41:19;;;;;;;11.43;2.93;;;7.70;99.90;;;;;;5038807;28;20206;-47
2022/02/09 18:43:23;;;;;;;9.07;3.10;;;7.60;99.90;;;;;;5028657;28;20269;-47
2022/02/09 18:45:55;;;;;;;8.70;3.23;;;7.60;99.90;;;;;;5041079;28;20200;-45
2022/02/09 18:48:47;;;;;;;10.83;3.43;;;7.60;99.90;;;;;;5022288;28;20253;-43
2022/02/09 18:56:59;;;;;;;11.87;3.83;;;7.60;99.90;;;;;;5042185;28;20191;-46
2022/02/09 18:59:31;;;;;;;10.80;3.47;;;7.70;99.90;;;;;;5019508;28;20298;-45
2022/02/09 19:02:06;;;;;;;19.37;3.77;;;7.70;99.90;;;;;;5035255;28;20202;-46
2022/02/09 19:04:39;;;;;;;12.57;3.23;;;7.60;99.90;;;;;;5022496;28;20203;-52
2022/02/09 19:07:22;;;;;;;15.93;3.73;;;7.60;99.90;;;;;;5025930;28;20199;-45
2022/02/09 19:15:41;;;;;;;15.07;4.53;;;7.70;99.90;;;;;;5030073;28;20939;-46
2022/02/09 19:18:30;;;;;;;15.20;4.73;;;7.70;99.90;;;;;;5030711;28;20708;-47
2022/02/09 19:26:13;;;;;;;14.33;4.37;;;7.70;99.90;;;;;;5020738;28;20221;-45
2022/02/09 19:26:48;;;;;;;9.97;3.90;;;7.70;99.90;;;;;;5032527;28;20211;-44
2022/02/09 19:29:52;;;;;;;14.27;4.93;;;7.70;99.90;;;;;;5036265;28;20230;-45
2022/02/09 19:32:30;;;;;;;17.77;4.97;;;7.70;99.90;;;;;;5032672;28;20195;-43
2022/02/09 19:40:53;;;;;;;15.43;4.60;;;7.70;99.90;;;;;;5039545;28;20187;-47
2022/02/09 19:46:18;;;;;;;11.73;3.83;;;7.70;99.90;;;;;;5023597;28;20342;-47
2022/02/09 19:48:54;;;;;;;12.53;4.27;;;7.60;99.90;;;;;;5038235;28;20212;-47
2022/02/09 19:51:36;;;;;;;12.03;4.00;;;7.60;99.90;;;;;;5034347;28;20230;-49
2022/02/09 19:54:10;;;;;;;16.53;4.37;;;7.60;99.90;;;;;;5025694;28;21033;-46
2022/02/09 19:56:41;;;;;;;12.43;3.70;;;7.60;99.90;;;;;;5034898;28;20262;-46
2022/02/09 19:59:15;;;;;;;11.27;3.60;;;7.60;99.90;;;;;;5026714;28;20244;-46
2022/02/09 20:01:43;;;;;;;9.20;3.73;;;7.60;99.90;;;;;;5037313;28;20303;-43
2022/02/09 20:04:10;;;;;;;11.63;3.70;;;7.60;99.90;;;;;;5032844;28;20968;-47
2022/02/09 20:06:36;;;;;;;14.77;3.97;;;7.60;99.90;;;;;;5037250;28;20214;-45
2022/02/09 20:09:04;;;;;;;11.20;4.00;;;7.60;99.90;;;;;;5023521;28;20594;-48
2022/02/09 20:11:31;;;;;;;10.20;3.40;;;7.60;99.90;;;;;;5037006;28;20219;-51
2022/02/09 20:13:59;;;;;;;11.80;3.70;;;7.60;99.90;;;;;;5029531;28;20211;-60
2022/02/09 20:16:26;;;;;;;14.40;4.23;;;7.60;99.90;;;;;;5037802;28;20853;-59
2022/02/09 20:18:55;;;;;;;9.87;3.37;;;7.60;99.90;;;;;;5027750;28;20224;-60
2022/02/09 20:21:25;;;;;;;8.50;3.57;;;7.50;99.90;;;;;;5035477;28;20195;-60
2022/02/09 20:23:52;;;;;;;16.43;3.80;;;7.50;99.90;;;;;;5023161;28;20675;-61
2022/02/09 20:26:20;;;;;;;12.90;3.50;;;7.50;99.90;;;;;;5036907;28;20197;-62
2022/02/09 20:28:53;;;;;;;18.20;4.17;;;7.50;99.90;;;;;;5036430;28;20215;-61
2022/02/09 20:31:27;;;;;;;13.23;3.53;;;7.50;99.90;;;;;;5035978;28;20215;-46
2022/02/09 20:33:58;;;;;;;9.57;4.07;;;7.50;99.90;;;;;;5036120;28;20236;-51
2022/02/09 20:36:25;;;;;;;16.97;4.40;;;7.50;99.90;;;;;;5054559;28;20208;-46
2022/02/09 20:38:56;;;;;;;14.67;3.67;;;7.50;99.90;;;;;;5025364;28;20707;-50
2022/02/09 20:41:23;;;;;;;16.80;4.40;;;7.50;99.90;;;;;;5037092;28;20950;-51
2022/02/09 20:44:01;;;;;;;13.50;4.37;;;7.50;99.90;;;;;;5037092;28;20200;-49
2022/02/09 20:46:32;;;;;;;11.33;4.80;;;7.50;99.90;;;;;;5029942;28;20257;-50
2022/02/09 20:48:59;;;;;;;10.97;4.80;;;7.50;99.90;;;;;;5035320;28;20226;-52
2022/02/09 20:51:26;;;;;;;13.47;4.47;;;7.50;99.90;;;;;;5028963;28;20223;-47
2022/02/09 20:53:54;;;;;;;16.50;4.60;;;7.50;99.90;;;;;;5037293;28;20287;-51
2022/02/09 20:56:21;;;;;;;14.20;4.83;;;7.50;99.90;;;;;;5020728;28;20211;-49
2022/02/09 20:58:52;;;;;;;10.50;4.93;;;7.50;99.90;;;;;;5033929;28;20230;-48
2022/02/09 21:01:27;;;;;;;20.37;5.53;;;7.40;99.90;;;;;;5029247;28;20211;-51